Terminal Aerodrome Forecast
Issued by NWS

Home | Current Version | Previous Version | Text Only | Print | Product List | Glossary On
Versions: 1 2 3 4 5 6 7 8 9 10 11 12 13
347
FTUS42 KKEY 272338
TAFMTH
TAF
KMTH 272338Z 2800/2824 12012KT P6SM FEW010
     FM281800 11012G21KT P6SM FEW020=

USA.gov is the U.S. government's official web portal to all federal, state and local government web resources and services.